ESMK/KID METAR and TAF weather

Enter ICAO airport designator
Station Type Date Time Source
ESMK METAR 2022/01/25 04:50 UTC NOAA

ESMK 250450Z AUTO 30011KT 9999 OVC012/// 06/04 Q1025


Station Type Date Time Source
ESMK Decoded METAR 2022/01/25 04:50 UTC NOAA

Kristianstad / Everod, Sweden (ESMK) 55-55N 014-05E
Jan 24, 2022 - 11:50 PM EST / 2022.01.25 0450 UTC
Wind: from the WNW (300 degrees) at 13 MPH (11 KT):0
Visibility: greater than 7 mile(s):0
Sky conditions: overcast
Temperature: 42 F (6 C)
Dew Point: 39 F (4 C)
Relative Humidity: 86%
Pressure (altimeter): 30.27 in. Hg (1025 hPa)
ob: ESMK 250450Z AUTO 30011KT 9999 OVC012/// 06/04 Q1025
cycle: 5

Station Type Date Time Source
ESMK TAF 2020/07/19 09:57 UTC NOAA

TAF TAF ESMK 190930Z 1909/1921 13008KT CAVOK PROB40 1910/1919 SCT030TCU

Example: see airport list